sensor_id;sensor_type;location;lat;lon;timestamp;temperature;humidity
39777;DHT22;25453;48.162;14.510;2023-07-31T00:02:04;20.20;78.50
39777;DHT22;25453;48.162;14.510;2023-07-31T00:04:31;20.20;78.40
39777;DHT22;25453;48.162;14.510;2023-07-31T00:06:59;20.20;78.40
39777;DHT22;25453;48.162;14.510;2023-07-31T00:09:26;20.20;78.30
39777;DHT22;25453;48.162;14.510;2023-07-31T00:11:53;20.20;78.20
39777;DHT22;25453;48.162;14.510;2023-07-31T00:14:20;20.20;78.20
39777;DHT22;25453;48.162;14.510;2023-07-31T00:16:47;20.20;77.90
39777;DHT22;25453;48.162;14.510;2023-07-31T00:19:18;20.30;77.70
39777;DHT22;25453;48.162;14.510;2023-07-31T00:21:45;20.30;77.60
39777;DHT22;25453;48.162;14.510;2023-07-31T00:24:12;20.30;77.40
39777;DHT22;25453;48.162;14.510;2023-07-31T00:26:39;20.30;77.30
39777;DHT22;25453;48.162;14.510;2023-07-31T00:29:07;20.30;77.00
39777;DHT22;25453;48.162;14.510;2023-07-31T00:31:34;20.40;76.80
39777;DHT22;25453;48.162;14.510;2023-07-31T00:34:01;20.40;76.60
39777;DHT22;25453;48.162;14.510;2023-07-31T00:36:28;20.40;76.30
39777;DHT22;25453;48.162;14.510;2023-07-31T00:38:55;20.40;76.10
39777;DHT22;25453;48.162;14.510;2023-07-31T00:41:22;20.40;76.10
39777;DHT22;25453;48.162;14.510;2023-07-31T00:43:49;20.40;76.10
39777;DHT22;25453;48.162;14.510;2023-07-31T00:46:17;20.40;75.90
39777;DHT22;25453;48.162;14.510;2023-07-31T00:48:44;20.40;75.70
39777;DHT22;25453;48.162;14.510;2023-07-31T00:51:12;20.40;75.50
39777;DHT22;25453;48.162;14.510;2023-07-31T00:53:41;20.40;75.40
39777;DHT22;25453;48.162;14.510;2023-07-31T00:56:11;20.40;75.40
39777;DHT22;25453;48.162;14.510;2023-07-31T00:58:39;20.40;75.10
39777;DHT22;25453;48.162;14.510;2023-07-31T01:01:07;20.40;75.10
39777;DHT22;25453;48.162;14.510;2023-07-31T01:03:34;20.40;75.10
39777;DHT22;25453;48.162;14.510;2023-07-31T01:08:49;20.40;75.10
39777;DHT22;25453;48.162;14.510;2023-07-31T01:11:30;20.50;75.00
39777;DHT22;25453;48.162;14.510;2023-07-31T01:13:58;20.40;74.90
39777;DHT22;25453;48.162;14.510;2023-07-31T01:16:26;20.50;74.70
39777;DHT22;25453;48.162;14.510;2023-07-31T01:18:53;20.50;74.70
39777;DHT22;25453;48.162;14.510;2023-07-31T01:27:06;20.50;74.70
39777;DHT22;25453;48.162;14.510;2023-07-31T01:30:10;20.50;74.60
39777;DHT22;25453;48.162;14.510;2023-07-31T01:32:42;20.50;74.70
39777;DHT22;25453;48.162;14.510;2023-07-31T01:35:10;20.50;74.60
39777;DHT22;25453;48.162;14.510;2023-07-31T01:37:38;20.50;74.60
39777;DHT22;25453;48.162;14.510;2023-07-31T01:40:06;20.50;74.70
39777;DHT22;25453;48.162;14.510;2023-07-31T01:42:34;20.50;74.70
39777;DHT22;25453;48.162;14.510;2023-07-31T01:45:01;20.50;74.80
39777;DHT22;25453;48.162;14.510;2023-07-31T01:47:28;20.50;74.90
39777;DHT22;25453;48.162;14.510;2023-07-31T01:49:55;20.50;74.90
39777;DHT22;25453;48.162;14.510;2023-07-31T01:52:22;20.50;75.00
39777;DHT22;25453;48.162;14.510;2023-07-31T01:54:49;20.40;75.00
39777;DHT22;25453;48.162;14.510;2023-07-31T01:57:17;20.40;75.10
39777;DHT22;25453;48.162;14.510;2023-07-31T01:59:44;20.40;75.10
39777;DHT22;25453;48.162;14.510;2023-07-31T02:02:11;20.40;75.20
39777;DHT22;25453;48.162;14.510;2023-07-31T02:04:38;20.40;75.20
39777;DHT22;25453;48.162;14.510;2023-07-31T02:07:07;20.40;75.20
39777;DHT22;25453;48.162;14.510;2023-07-31T02:09:34;20.40;75.10
39777;DHT22;25453;48.162;14.510;2023-07-31T02:12:01;20.30;75.10
39777;DHT22;25453;48.162;14.510;2023-07-31T02:14:28;20.30;75.10
39777;DHT22;25453;48.162;14.510;2023-07-31T02:16:56;20.30;75.10
39777;DHT22;25453;48.162;14.510;2023-07-31T02:19:23;20.30;75.10
39777;DHT22;25453;48.162;14.510;2023-07-31T02:21:50;20.30;75.10
39777;DHT22;25453;48.162;14.510;2023-07-31T02:24:17;20.30;75.00
39777;DHT22;25453;48.162;14.510;2023-07-31T02:26:44;20.30;74.80
39777;DHT22;25453;48.162;14.510;2023-07-31T02:29:11;20.30;74.60
39777;DHT22;25453;48.162;14.510;2023-07-31T02:31:39;20.20;74.60
39777;DHT22;25453;48.162;14.510;2023-07-31T02:34:06;20.20;74.60
39777;DHT22;25453;48.162;14.510;2023-07-31T02:36:33;20.20;74.50
39777;DHT22;25453;48.162;14.510;2023-07-31T02:39:00;20.20;74.30
39777;DHT22;25453;48.162;14.510;2023-07-31T02:41:28;20.20;74.10
39777;DHT22;25453;48.162;14.510;2023-07-31T02:43:55;20.20;74.00
39777;DHT22;25453;48.162;14.510;2023-07-31T02:46:22;20.20;73.90
39777;DHT22;25453;48.162;14.510;2023-07-31T02:48:51;20.20;73.80
39777;DHT22;25453;48.162;14.510;2023-07-31T02:51:18;20.20;73.60
39777;DHT22;25453;48.162;14.510;2023-07-31T02:53:48;20.20;73.50
39777;DHT22;25453;48.162;14.510;2023-07-31T02:56:16;20.10;73.20
39777;DHT22;25453;48.162;14.510;2023-07-31T02:58:43;20.10;73.00
39777;DHT22;25453;48.162;14.510;2023-07-31T03:01:11;20.10;72.80
39777;DHT22;25453;48.162;14.510;2023-07-31T03:03:38;20.00;72.70
39777;DHT22;25453;48.162;14.510;2023-07-31T03:06:05;20.00;72.60
39777;DHT22;25453;48.162;14.510;2023-07-31T03:08:33;20.00;72.40
39777;DHT22;25453;48.162;14.510;2023-07-31T03:11:00;20.00;72.10
39777;DHT22;25453;48.162;14.510;2023-07-31T03:13:27;20.00;72.00
39777;DHT22;25453;48.162;14.510;2023-07-31T03:15:54;19.90;71.90
39777;DHT22;25453;48.162;14.510;2023-07-31T03:18:22;19.90;71.80
39777;DHT22;25453;48.162;14.510;2023-07-31T03:20:49;19.90;71.60
39777;DHT22;25453;48.162;14.510;2023-07-31T03:23:16;19.80;71.30
39777;DHT22;25453;48.162;14.510;2023-07-31T03:26:05;19.80;71.20
39777;DHT22;25453;48.162;14.510;2023-07-31T03:28:33;19.70;71.20
39777;DHT22;25453;48.162;14.510;2023-07-31T03:31:00;19.70;71.30
39777;DHT22;25453;48.162;14.510;2023-07-31T03:33:28;19.70;71.20
39777;DHT22;25453;48.162;14.510;2023-07-31T03:35:55;19.70;71.20
39777;DHT22;25453;48.162;14.510;2023-07-31T03:38:22;19.70;71.10
39777;DHT22;25453;48.162;14.510;2023-07-31T03:40:49;19.70;71.00
39777;DHT22;25453;48.162;14.510;2023-07-31T03:43:17;19.60;70.90
39777;DHT22;25453;48.162;14.510;2023-07-31T03:45:44;19.60;70.80
39777;DHT22;25453;48.162;14.510;2023-07-31T03:48:11;19.60;70.70
39777;DHT22;25453;48.162;14.510;2023-07-31T03:50:38;19.60;70.80
39777;DHT22;25453;48.162;14.510;2023-07-31T03:53:05;19.60;70.60
39777;DHT22;25453;48.162;14.510;2023-07-31T03:55:33;19.60;70.40
39777;DHT22;25453;48.162;14.510;2023-07-31T03:58:00;19.50;70.10
39777;DHT22;25453;48.162;14.510;2023-07-31T04:00:27;19.50;70.10
39777;DHT22;25453;48.162;14.510;2023-07-31T04:02:54;19.50;70.00
39777;DHT22;25453;48.162;14.510;2023-07-31T04:05:22;19.50;69.90
39777;DHT22;25453;48.162;14.510;2023-07-31T04:07:49;19.50;69.80
39777;DHT22;25453;48.162;14.510;2023-07-31T04:10:16;19.50;69.70
39777;DHT22;25453;48.162;14.510;2023-07-31T04:12:43;19.50;69.60
39777;DHT22;25453;48.162;14.510;2023-07-31T04:15:10;19.50;69.50
39777;DHT22;25453;48.162;14.510;2023-07-31T04:17:37;19.50;69.40
39777;DHT22;25453;48.162;14.510;2023-07-31T04:20:05;19.50;69.40
39777;DHT22;25453;48.162;14.510;2023-07-31T04:22:33;19.50;69.30
39777;DHT22;25453;48.162;14.510;2023-07-31T04:25:00;19.50;69.30
39777;DHT22;25453;48.162;14.510;2023-07-31T04:27:27;19.50;69.20
39777;DHT22;25453;48.162;14.510;2023-07-31T04:29:54;19.40;69.30
39777;DHT22;25453;48.162;14.510;2023-07-31T04:32:21;19.40;69.30
39777;DHT22;25453;48.162;14.510;2023-07-31T04:34:48;19.40;69.50
39777;DHT22;25453;48.162;14.510;2023-07-31T04:37:16;19.40;69.60
39777;DHT22;25453;48.162;14.510;2023-07-31T04:39:43;19.40;69.60
39777;DHT22;25453;48.162;14.510;2023-07-31T04:42:10;19.40;69.60
39777;DHT22;25453;48.162;14.510;2023-07-31T04:44:37;19.30;69.70
39777;DHT22;25453;48.162;14.510;2023-07-31T04:47:04;19.30;69.80
39777;DHT22;25453;48.162;14.510;2023-07-31T04:49:32;19.30;69.90
39777;DHT22;25453;48.162;14.510;2023-07-31T04:51:59;19.30;69.90
39777;DHT22;25453;48.162;14.510;2023-07-31T04:54:26;19.20;70.20
39777;DHT22;25453;48.162;14.510;2023-07-31T04:56:54;19.10;70.40
39777;DHT22;25453;48.162;14.510;2023-07-31T04:59:21;19.10;70.60
39777;DHT22;25453;48.162;14.510;2023-07-31T05:01:48;19.10;70.80
39777;DHT22;25453;48.162;14.510;2023-07-31T05:04:15;19.10;70.90
39777;DHT22;25453;48.162;14.510;2023-07-31T05:06:43;19.00;71.00
39777;DHT22;25453;48.162;14.510;2023-07-31T05:09:10;19.10;71.30
39777;DHT22;25453;48.162;14.510;2023-07-31T05:11:37;19.00;71.20
39777;DHT22;25453;48.162;14.510;2023-07-31T05:14:04;19.00;71.30
39777;DHT22;25453;48.162;14.510;2023-07-31T05:16:31;18.90;71.60
39777;DHT22;25453;48.162;14.510;2023-07-31T05:18:58;19.00;71.90
39777;DHT22;25453;48.162;14.510;2023-07-31T05:21:26;19.00;71.80
39777;DHT22;25453;48.162;14.510;2023-07-31T05:23:53;19.00;71.80
39777;DHT22;25453;48.162;14.510;2023-07-31T05:26:20;18.90;72.00
39777;DHT22;25453;48.162;14.510;2023-07-31T05:28:47;18.90;72.10
39777;DHT22;25453;48.162;14.510;2023-07-31T05:31:14;18.90;72.20
39777;DHT22;25453;48.162;14.510;2023-07-31T05:33:41;18.90;72.40
39777;DHT22;25453;48.162;14.510;2023-07-31T05:36:08;18.90;72.50
39777;DHT22;25453;48.162;14.510;2023-07-31T05:38:36;18.90;72.60
39777;DHT22;25453;48.162;14.510;2023-07-31T05:41:03;18.90;72.60
39777;DHT22;25453;48.162;14.510;2023-07-31T05:43:30;18.90;72.70
39777;DHT22;25453;48.162;14.510;2023-07-31T05:45:57;18.90;72.80
39777;DHT22;25453;48.162;14.510;2023-07-31T05:48:24;18.90;72.90
39777;DHT22;25453;48.162;14.510;2023-07-31T05:50:52;18.90;73.10
39777;DHT22;25453;48.162;14.510;2023-07-31T05:53:19;19.00;73.00
39777;DHT22;25453;48.162;14.510;2023-07-31T05:55:46;19.00;73.00
39777;DHT22;25453;48.162;14.510;2023-07-31T05:58:13;19.00;73.20
39777;DHT22;25453;48.162;14.510;2023-07-31T06:00:40;19.00;73.40
39777;DHT22;25453;48.162;14.510;2023-07-31T06:03:08;19.00;73.60
39777;DHT22;25453;48.162;14.510;2023-07-31T06:05:35;19.10;73.70
39777;DHT22;25453;48.162;14.510;2023-07-31T06:08:02;19.20;73.70
39777;DHT22;25453;48.162;14.510;2023-07-31T06:10:30;19.20;73.50
39777;DHT22;25453;48.162;14.510;2023-07-31T06:12:57;19.30;73.40
39777;DHT22;25453;48.162;14.510;2023-07-31T06:15:24;19.40;73.20
39777;DHT22;25453;48.162;14.510;2023-07-31T06:17:51;19.40;73.10
39777;DHT22;25453;48.162;14.510;2023-07-31T06:20:19;19.50;72.80
39777;DHT22;25453;48.162;14.510;2023-07-31T06:22:46;19.60;72.70
39777;DHT22;25453;48.162;14.510;2023-07-31T06:25:13;19.60;72.60
39777;DHT22;25453;48.162;14.510;2023-07-31T06:27:41;19.70;72.40
39777;DHT22;25453;48.162;14.510;2023-07-31T06:30:09;19.70;72.20
39777;DHT22;25453;48.162;14.510;2023-07-31T06:32:36;19.80;71.90
39777;DHT22;25453;48.162;14.510;2023-07-31T06:35:03;19.80;71.70
39777;DHT22;25453;48.162;14.510;2023-07-31T06:37:31;19.90;71.50
39777;DHT22;25453;48.162;14.510;2023-07-31T06:39:58;19.90;71.30
39777;DHT22;25453;48.162;14.510;2023-07-31T06:42:25;19.90;71.00
39777;DHT22;25453;48.162;14.510;2023-07-31T06:44:52;19.90;70.90
39777;DHT22;25453;48.162;14.510;2023-07-31T06:47:19;20.00;70.80
39777;DHT22;25453;48.162;14.510;2023-07-31T06:49:46;20.00;70.80
39777;DHT22;25453;48.162;14.510;2023-07-31T06:52:14;20.10;70.80
39777;DHT22;25453;48.162;14.510;2023-07-31T06:54:41;20.10;70.80
39777;DHT22;25453;48.162;14.510;2023-07-31T06:57:08;20.20;70.80
39777;DHT22;25453;48.162;14.510;2023-07-31T06:59:35;20.20;71.00
39777;DHT22;25453;48.162;14.510;2023-07-31T07:02:02;20.30;70.90
39777;DHT22;25453;48.162;14.510;2023-07-31T07:04:32;20.40;70.80
39777;DHT22;25453;48.162;14.510;2023-07-31T07:07:00;20.40;70.80
39777;DHT22;25453;48.162;14.510;2023-07-31T07:09:27;20.40;70.70
39777;DHT22;25453;48.162;14.510;2023-07-31T07:11:54;20.50;70.40
39777;DHT22;25453;48.162;14.510;2023-07-31T07:14:21;20.50;70.10
39777;DHT22;25453;48.162;14.510;2023-07-31T07:16:51;20.50;70.10
39777;DHT22;25453;48.162;14.510;2023-07-31T07:19:18;20.50;70.00
39777;DHT22;25453;48.162;14.510;2023-07-31T07:21:45;20.50;70.00
39777;DHT22;25453;48.162;14.510;2023-07-31T07:24:13;20.50;70.00
39777;DHT22;25453;48.162;14.510;2023-07-31T07:26:40;20.60;69.90
39777;DHT22;25453;48.162;14.510;2023-07-31T07:29:08;20.60;69.90
39777;DHT22;25453;48.162;14.510;2023-07-31T07:31:37;20.70;69.90
39777;DHT22;25453;48.162;14.510;2023-07-31T07:34:04;20.70;69.70
39777;DHT22;25453;48.162;14.510;2023-07-31T07:36:32;20.70;69.70
39777;DHT22;25453;48.162;14.510;2023-07-31T07:38:59;20.80;69.70
39777;DHT22;25453;48.162;14.510;2023-07-31T07:41:26;20.80;69.70
39777;DHT22;25453;48.162;14.510;2023-07-31T07:43:53;20.90;69.60
39777;DHT22;25453;48.162;14.510;2023-07-31T07:46:20;21.00;69.60
39777;DHT22;25453;48.162;14.510;2023-07-31T07:48:48;21.10;69.20
39777;DHT22;25453;48.162;14.510;2023-07-31T07:51:15;21.20;68.70
39777;DHT22;25453;48.162;14.510;2023-07-31T07:53:42;21.20;68.20
39777;DHT22;25453;48.162;14.510;2023-07-31T07:56:10;21.30;67.70
39777;DHT22;25453;48.162;14.510;2023-07-31T07:58:38;21.30;67.40
39777;DHT22;25453;48.162;14.510;2023-07-31T08:01:05;21.40;67.00
39777;DHT22;25453;48.162;14.510;2023-07-31T08:03:32;21.40;66.40
39777;DHT22;25453;48.162;14.510;2023-07-31T08:06:00;21.50;66.00
39777;DHT22;25453;48.162;14.510;2023-07-31T08:08:28;21.50;65.80
39777;DHT22;25453;48.162;14.510;2023-07-31T08:10:56;21.60;65.70
39777;DHT22;25453;48.162;14.510;2023-07-31T08:13:23;21.70;65.20
39777;DHT22;25453;48.162;14.510;2023-07-31T08:15:50;21.80;64.60
39777;DHT22;25453;48.162;14.510;2023-07-31T08:18:17;21.80;64.20
39777;DHT22;25453;48.162;14.510;2023-07-31T08:20:45;21.90;63.60
39777;DHT22;25453;48.162;14.510;2023-07-31T08:23:12;21.90;63.10
39777;DHT22;25453;48.162;14.510;2023-07-31T08:25:40;22.00;62.70
39777;DHT22;25453;48.162;14.510;2023-07-31T08:28:07;22.00;62.20
39777;DHT22;25453;48.162;14.510;2023-07-31T08:30:35;22.00;61.90
39777;DHT22;25453;48.162;14.510;2023-07-31T08:33:02;22.00;61.60
39777;DHT22;25453;48.162;14.510;2023-07-31T08:35:29;22.10;61.50
39777;DHT22;25453;48.162;14.510;2023-07-31T08:37:56;22.10;61.30
39777;DHT22;25453;48.162;14.510;2023-07-31T08:40:24;22.20;61.00
39777;DHT22;25453;48.162;14.510;2023-07-31T08:42:54;22.20;60.80
39777;DHT22;25453;48.162;14.510;2023-07-31T08:45:23;22.20;60.50
39777;DHT22;25453;48.162;14.510;2023-07-31T08:47:52;22.30;60.40
39777;DHT22;25453;48.162;14.510;2023-07-31T08:50:21;22.30;60.40
39777;DHT22;25453;48.162;14.510;2023-07-31T08:52:50;22.30;60.30
39777;DHT22;25453;48.162;14.510;2023-07-31T08:55:18;22.30;59.90
39777;DHT22;25453;48.162;14.510;2023-07-31T08:57:54;22.40;59.80
39777;DHT22;25453;48.162;14.510;2023-07-31T09:00:23;22.40;59.70
39777;DHT22;25453;48.162;14.510;2023-07-31T09:02:57;22.40;59.50
39777;DHT22;25453;48.162;14.510;2023-07-31T09:05:26;22.40;59.50
39777;DHT22;25453;48.162;14.510;2023-07-31T09:07:56;22.50;59.50
39777;DHT22;25453;48.162;14.510;2023-07-31T09:10:24;22.50;59.50
39777;DHT22;25453;48.162;14.510;2023-07-31T09:12:52;22.50;59.30
39777;DHT22;25453;48.162;14.510;2023-07-31T09:15:19;22.50;59.20
39777;DHT22;25453;48.162;14.510;2023-07-31T09:18:05;22.60;59.10
39777;DHT22;25453;48.162;14.510;2023-07-31T09:20:33;22.60;58.90
39777;DHT22;25453;48.162;14.510;2023-07-31T09:23:12;22.60;58.90
39777;DHT22;25453;48.162;14.510;2023-07-31T09:25:43;22.60;59.00
39777;DHT22;25453;48.162;14.510;2023-07-31T09:28:11;22.70;59.00
39777;DHT22;25453;48.162;14.510;2023-07-31T09:30:51;22.70;59.00
39777;DHT22;25453;48.162;14.510;2023-07-31T09:33:19;22.80;58.90
39777;DHT22;25453;48.162;14.510;2023-07-31T09:35:47;22.80;58.80
39777;DHT22;25453;48.162;14.510;2023-07-31T09:38:17;22.80;58.70
39777;DHT22;25453;48.162;14.510;2023-07-31T09:40:48;22.80;58.50
39777;DHT22;25453;48.162;14.510;2023-07-31T09:43:20;22.80;58.60
39777;DHT22;25453;48.162;14.510;2023-07-31T09:45:48;22.80;58.60
39777;DHT22;25453;48.162;14.510;2023-07-31T09:48:16;22.80;58.50
39777;DHT22;25453;48.162;14.510;2023-07-31T09:50:46;22.90;58.50
39777;DHT22;25453;48.162;14.510;2023-07-31T09:53:15;22.90;58.40
39777;DHT22;25453;48.162;14.510;2023-07-31T09:55:42;22.90;58.20
39777;DHT22;25453;48.162;14.510;2023-07-31T09:58:11;22.90;58.10
39777;DHT22;25453;48.162;14.510;2023-07-31T10:00:42;22.90;58.10
39777;DHT22;25453;48.162;14.510;2023-07-31T10:03:10;23.00;58.10
39777;DHT22;25453;48.162;14.510;2023-07-31T10:05:42;23.00;58.10
39777;DHT22;25453;48.162;14.510;2023-07-31T10:08:14;23.10;57.90
39777;DHT22;25453;48.162;14.510;2023-07-31T10:10:46;23.10;57.90
39777;DHT22;25453;48.162;14.510;2023-07-31T10:13:14;23.20;58.70
39777;DHT22;25453;48.162;14.510;2023-07-31T10:15:42;23.50;59.30
39777;DHT22;25453;48.162;14.510;2023-07-31T10:18:11;23.70;58.90
39777;DHT22;25453;48.162;14.510;2023-07-31T10:20:40;24.00;58.70
39777;DHT22;25453;48.162;14.510;2023-07-31T10:23:08;24.30;58.60
39777;DHT22;25453;48.162;14.510;2023-07-31T10:25:37;24.70;58.30
39777;DHT22;25453;48.162;14.510;2023-07-31T10:28:05;25.10;57.30
39777;DHT22;25453;48.162;14.510;2023-07-31T10:30:33;25.50;56.20
39777;DHT22;25453;48.162;14.510;2023-07-31T10:33:05;25.80;55.30
39777;DHT22;25453;48.162;14.510;2023-07-31T10:35:33;26.20;54.40
39777;DHT22;25453;48.162;14.510;2023-07-31T10:38:10;26.50;53.40
39777;DHT22;25453;48.162;14.510;2023-07-31T10:40:39;26.70;52.60
39777;DHT22;25453;48.162;14.510;2023-07-31T10:43:07;27.00;52.00
39777;DHT22;25453;48.162;14.510;2023-07-31T10:45:44;27.20;51.40
39777;DHT22;25453;48.162;14.510;2023-07-31T10:48:17;27.40;50.70
39777;DHT22;25453;48.162;14.510;2023-07-31T10:50:54;27.50;49.90
39777;DHT22;25453;48.162;14.510;2023-07-31T10:53:30;27.70;49.70
39777;DHT22;25453;48.162;14.510;2023-07-31T10:55:59;27.80;49.20
39777;DHT22;25453;48.162;14.510;2023-07-31T10:58:27;27.90;48.60
39777;DHT22;25453;48.162;14.510;2023-07-31T11:00:59;28.00;47.90
39777;DHT22;25453;48.162;14.510;2023-07-31T11:03:44;28.10;47.70
39777;DHT22;25453;48.162;14.510;2023-07-31T11:06:12;28.20;47.70
39777;DHT22;25453;48.162;14.510;2023-07-31T11:08:52;28.30;47.50
39777;DHT22;25453;48.162;14.510;2023-07-31T11:11:20;28.40;47.20
39777;DHT22;25453;48.162;14.510;2023-07-31T11:13:52;28.50;47.10
39777;DHT22;25453;48.162;14.510;2023-07-31T11:16:22;28.60;46.30
39777;DHT22;25453;48.162;14.510;2023-07-31T11:18:50;28.70;45.60
39777;DHT22;25453;48.162;14.510;2023-07-31T11:21:19;28.60;45.60
39777;DHT22;25453;48.162;14.510;2023-07-31T11:23:47;28.70;45.60
39777;DHT22;25453;48.162;14.510;2023-07-31T11:26:15;28.80;45.60
39777;DHT22;25453;48.162;14.510;2023-07-31T11:28:43;28.90;45.20
39777;DHT22;25453;48.162;14.510;2023-07-31T11:31:11;28.80;44.50
39777;DHT22;25453;48.162;14.510;2023-07-31T11:33:38;28.60;44.50
39777;DHT22;25453;48.162;14.510;2023-07-31T11:36:05;28.60;44.70
39777;DHT22;25453;48.162;14.510;2023-07-31T11:38:33;28.60;44.70
39777;DHT22;25453;48.162;14.510;2023-07-31T11:41:03;28.50;44.60
39777;DHT22;25453;48.162;14.510;2023-07-31T11:43:33;28.50;44.50
39777;DHT22;25453;48.162;14.510;2023-07-31T11:46:02;28.40;44.50
39777;DHT22;25453;48.162;14.510;2023-07-31T11:48:32;28.40;44.60
39777;DHT22;25453;48.162;14.510;2023-07-31T11:51:04;28.40;44.70
39777;DHT22;25453;48.162;14.510;2023-07-31T11:53:45;28.40;44.30
39777;DHT22;25453;48.162;14.510;2023-07-31T11:56:17;28.30;44.10
39777;DHT22;25453;48.162;14.510;2023-07-31T11:58:50;28.10;44.10
39777;DHT22;25453;48.162;14.510;2023-07-31T12:01:20;28.00;44.40
39777;DHT22;25453;48.162;14.510;2023-07-31T12:03:49;27.90;44.60
39777;DHT22;25453;48.162;14.510;2023-07-31T12:06:17;27.90;44.80
39777;DHT22;25453;48.162;14.510;2023-07-31T12:08:44;27.80;45.00
39777;DHT22;25453;48.162;14.510;2023-07-31T12:11:11;27.70;45.00
39777;DHT22;25453;48.162;14.510;2023-07-31T12:13:40;27.60;45.00
39777;DHT22;25453;48.162;14.510;2023-07-31T12:16:07;27.50;45.10
39777;DHT22;25453;48.162;14.510;2023-07-31T12:18:36;27.40;45.10
39777;DHT22;25453;48.162;14.510;2023-07-31T12:21:06;27.30;45.30
39777;DHT22;25453;48.162;14.510;2023-07-31T12:23:36;27.10;45.50
39777;DHT22;25453;48.162;14.510;2023-07-31T12:26:05;27.00;46.00
39777;DHT22;25453;48.162;14.510;2023-07-31T12:28:37;27.00;46.10
39777;DHT22;25453;48.162;14.510;2023-07-31T12:31:08;27.00;46.40
39777;DHT22;25453;48.162;14.510;2023-07-31T12:33:37;27.10;46.70
39777;DHT22;25453;48.162;14.510;2023-07-31T12:36:10;27.30;46.70
39777;DHT22;25453;48.162;14.510;2023-07-31T12:38:38;27.60;46.30
39777;DHT22;25453;48.162;14.510;2023-07-31T12:41:05;27.80;45.70
39777;DHT22;25453;48.162;14.510;2023-07-31T12:43:36;28.00;45.40
39777;DHT22;25453;48.162;14.510;2023-07-31T12:46:04;28.10;45.10
39777;DHT22;25453;48.162;14.510;2023-07-31T12:48:32;28.30;45.10
39777;DHT22;25453;48.162;14.510;2023-07-31T12:50:59;28.30;45.10
39777;DHT22;25453;48.162;14.510;2023-07-31T12:53:27;28.50;45.00
39777;DHT22;25453;48.162;14.510;2023-07-31T12:55:55;28.60;44.70
39777;DHT22;25453;48.162;14.510;2023-07-31T12:58:24;28.70;44.50
39777;DHT22;25453;48.162;14.510;2023-07-31T13:00:51;28.80;44.20
39777;DHT22;25453;48.162;14.510;2023-07-31T13:03:19;28.90;44.30
39777;DHT22;25453;48.162;14.510;2023-07-31T13:05:46;29.00;44.00
39777;DHT22;25453;48.162;14.510;2023-07-31T13:08:13;29.00;43.90
39777;DHT22;25453;48.162;14.510;2023-07-31T13:10:42;29.00;43.70
39777;DHT22;25453;48.162;14.510;2023-07-31T13:13:10;28.90;43.50
39777;DHT22;25453;48.162;14.510;2023-07-31T13:15:37;28.90;43.50
39777;DHT22;25453;48.162;14.510;2023-07-31T13:18:04;29.00;43.80
39777;DHT22;25453;48.162;14.510;2023-07-31T13:20:32;29.00;43.90
39777;DHT22;25453;48.162;14.510;2023-07-31T13:22:59;29.10;43.60
39777;DHT22;25453;48.162;14.510;2023-07-31T13:25:26;29.10;43.10
39777;DHT22;25453;48.162;14.510;2023-07-31T13:27:55;29.10;42.80
39777;DHT22;25453;48.162;14.510;2023-07-31T13:30:23;29.10;43.00
39777;DHT22;25453;48.162;14.510;2023-07-31T13:32:50;29.10;42.90
39777;DHT22;25453;48.162;14.510;2023-07-31T13:35:17;29.10;42.50
39777;DHT22;25453;48.162;14.510;2023-07-31T13:37:44;29.10;42.90
39777;DHT22;25453;48.162;14.510;2023-07-31T13:40:11;29.20;42.90
39777;DHT22;25453;48.162;14.510;2023-07-31T13:42:38;29.20;42.70
39777;DHT22;25453;48.162;14.510;2023-07-31T13:45:06;29.30;42.70
39777;DHT22;25453;48.162;14.510;2023-07-31T13:47:34;29.40;42.70
39777;DHT22;25453;48.162;14.510;2023-07-31T13:50:01;29.50;42.40
39777;DHT22;25453;48.162;14.510;2023-07-31T13:52:29;29.60;42.60
39777;DHT22;25453;48.162;14.510;2023-07-31T13:54:56;29.70;42.70
39777;DHT22;25453;48.162;14.510;2023-07-31T13:57:23;29.80;42.40
39777;DHT22;25453;48.162;14.510;2023-07-31T13:59:50;29.80;42.10
39777;DHT22;25453;48.162;14.510;2023-07-31T14:02:18;29.80;41.80
39777;DHT22;25453;48.162;14.510;2023-07-31T14:04:45;29.80;41.50
39777;DHT22;25453;48.162;14.510;2023-07-31T14:07:12;29.80;41.40
39777;DHT22;25453;48.162;14.510;2023-07-31T14:09:39;29.80;41.30
39777;DHT22;25453;48.162;14.510;2023-07-31T14:12:07;29.80;41.20
39777;DHT22;25453;48.162;14.510;2023-07-31T14:14:34;29.70;41.20
39777;DHT22;25453;48.162;14.510;2023-07-31T14:17:01;29.60;41.00
39777;DHT22;25453;48.162;14.510;2023-07-31T14:19:29;29.60;41.10
39777;DHT22;25453;48.162;14.510;2023-07-31T14:21:59;29.60;41.20
39777;DHT22;25453;48.162;14.510;2023-07-31T14:24:38;29.60;41.10
39777;DHT22;25453;48.162;14.510;2023-07-31T14:27:05;29.70;41.80
39777;DHT22;25453;48.162;14.510;2023-07-31T14:29:33;29.70;41.40
39777;DHT22;25453;48.162;14.510;2023-07-31T14:32:00;29.70;41.20
39777;DHT22;25453;48.162;14.510;2023-07-31T14:34:27;29.70;41.00
39777;DHT22;25453;48.162;14.510;2023-07-31T14:36:54;29.70;41.00
39777;DHT22;25453;48.162;14.510;2023-07-31T14:39:22;29.70;41.00
39777;DHT22;25453;48.162;14.510;2023-07-31T14:41:50;29.70;40.80
39777;DHT22;25453;48.162;14.510;2023-07-31T14:44:17;29.60;40.50
39777;DHT22;25453;48.162;14.510;2023-07-31T14:46:47;29.50;40.50
39777;DHT22;25453;48.162;14.510;2023-07-31T14:49:14;29.40;40.90
39777;DHT22;25453;48.162;14.510;2023-07-31T14:51:41;29.40;41.20
39777;DHT22;25453;48.162;14.510;2023-07-31T14:54:08;29.40;41.30
39777;DHT22;25453;48.162;14.510;2023-07-31T14:56:35;29.30;41.20
39777;DHT22;25453;48.162;14.510;2023-07-31T14:59:05;29.30;41.20
39777;DHT22;25453;48.162;14.510;2023-07-31T15:01:39;29.20;41.20
39777;DHT22;25453;48.162;14.510;2023-07-31T15:04:06;29.10;41.50
39777;DHT22;25453;48.162;14.510;2023-07-31T15:06:33;29.00;42.10
39777;DHT22;25453;48.162;14.510;2023-07-31T15:09:00;29.00;42.20
39777;DHT22;25453;48.162;14.510;2023-07-31T15:11:27;28.90;42.20
39777;DHT22;25453;48.162;14.510;2023-07-31T15:13:55;28.80;42.20
39777;DHT22;25453;48.162;14.510;2023-07-31T15:16:22;28.70;42.20
39777;DHT22;25453;48.162;14.510;2023-07-31T15:18:49;28.60;42.10
39777;DHT22;25453;48.162;14.510;2023-07-31T15:21:16;28.50;42.60
39777;DHT22;25453;48.162;14.510;2023-07-31T15:23:43;28.50;42.90
39777;DHT22;25453;48.162;14.510;2023-07-31T15:26:10;28.40;43.00
39777;DHT22;25453;48.162;14.510;2023-07-31T15:28:38;28.30;43.10
39777;DHT22;25453;48.162;14.510;2023-07-31T15:31:05;28.20;43.40